Terminal Aerodrome Forecast
Issued by NWS Louisville, KY

Home | Current Version | Previous Version | Text Only | Print | Product List | Glossary On
Versions: 1 2 3 4 5 6 7 8 9 10 11 12 13 14 15 16 17
000
FTUS43 KLMK 271700
TAFBWG
TAF
KBWG 271736Z 2718/2818 04005KT P6SM VCSH SCT030
     FM280600 00000KT 5SM BR FEW250
     FM281100 00000KT 1SM BR SKC
     FM281400 06005KT P6SM SCT040=

USA.gov is the U.S. government's official web portal to all federal, state and local government web resources and services.